Jordan, MN (55352)

4:31 AM CST on February 08, 2016 (GMT -0600)
APRSWXNET | | Change Station
CLOSE
Current Station
Personal Weather Station
Location: Jordan, MN
Elevation: 932 ft
Nearby Weather Stations
Active Advisory: Winter Weather Advisory

Elev 932 ft 44.66 °N, 93.52 °W | Updated 22 minutes ago

Overcast
Overcast
13 °F
Feels Like -4 °F
N
17
Wind Variable Wind from NW
Gusts 0.0 mph

Today
High -- | Low -- °F
--% Chance of Precip.
Yesterday
High -- | Low -- °F
Precip. -- in
Pressure 29.84 in
Visibility 10.0 miles
Clouds Overcast 3100 ft
Windchill -4 °F
Dew Point 8 °F
Humidity 81%
Rainfall in
Snow Depth Not available.
7:25 AM 5:32 PM
Waning Crescent, 0% visible
METAR KFCM 080953Z AUTO 31013G23KT 10SM OVC031 M09/M14 A2980 RMK AO2 SNE04 SLP104 P0000 T10941144
Pressure 29.84 in
Visibility 10.0 miles
Clouds Overcast 3100 ft
Windchill -4 °F
Dew Point 8 °F
Humidity 81%
Rainfall in
Snow Depth Not available.
7:25 AM 5:32 PM
Waning Crescent, 0% visible
METAR KFCM 080953Z AUTO 31013G23KT 10SM OVC031 M09/M14 A2980 RMK AO2 SNE04 SLP104 P0000 T10941144

10-Day Weather Forecast

Almanac

Astronomy

Feb. 08, 2016 Rise Set
Actual Time
Civil Twilight
Nautical Twilight
Astronomical Twilight
Moon
Length of Visible Light
Length of Day
Tomorrow will be .
, % of the Moon is Illuminated

Today's Extremes

State Highs State Lows

Community

WunderPhotos

Upload Photos

1,891,420 photos uploaded!

WunderBlog® & News

Nearby

Air Quality

  Air Quality AQ Index Pollutant
Not available.

Snow Depth

Station Depth Elevation

Earthquake Activity

City Distance Mag. Time & Date
Minimum magnitude displayed is 2.5.

Coastal Water Temperatures

Place Temperature

Stations

Nearby Weather Stations

Station Location Temp. Windchill Dew Point Humidity Wind Precip. Elev Updated Type
                   

Watches & Warnings

Winter Weather Advisory
Issued: 3:47 AM CST Feb. 8, 2016 – National Weather Service

... Winter Weather Advisory remains in effect until noon CST
today...

* expect occasional light snow through noon.

* Additional snow accumulations of less than in inch expected.

* Winds gusting as high as 30 mph will cause areas of blowing
snow.

* Plan on reduced visibility at times and slippery Road
conditions.

Precautionary/preparedness actions...

A Winter Weather Advisory for snow means periods of snow will
cause primarily travel difficulties. Be prepared for snow covered
roads and limited visibilities... and use caution while driving.
The latest Road conditions for the state you are calling from can
be obtained by calling 5 1 1.


Jrb